sensor_id;sensor_type;location;lat;lon;timestamp;pressure;altitude;pressure_sealevel;temperature;humidity
38620;BME280;24376;51.986;4.662;2022-10-23T00:01:25;108072.63;;;12.26;69.92
38620;BME280;24376;51.986;4.662;2022-10-23T00:04:00;108034.69;;;12.24;69.99
38620;BME280;24376;51.986;4.662;2022-10-23T00:06:26;107985.66;;;12.24;70.26
38620;BME280;24376;51.986;4.662;2022-10-23T00:08:52;108041.47;;;12.29;69.94
38620;BME280;24376;51.986;4.662;2022-10-23T00:11:21;108055.78;;;12.31;69.96
38620;BME280;24376;51.986;4.662;2022-10-23T00:13:47;108063.69;;;12.31;69.88
38620;BME280;24376;51.986;4.662;2022-10-23T00:16:13;108010.88;;;12.30;70.21
38620;BME280;24376;51.986;4.662;2022-10-23T00:18:38;108054.09;;;12.32;69.91
38620;BME280;24376;51.986;4.662;2022-10-23T00:21:04;108069.69;;;12.30;69.85
38620;BME280;24376;51.986;4.662;2022-10-23T00:23:30;108042.44;;;12.30;69.91
38620;BME280;24376;51.986;4.662;2022-10-23T00:25:55;108068.19;;;12.32;69.80
38620;BME280;24376;51.986;4.662;2022-10-23T00:28:20;108075.03;;;12.37;69.82
38620;BME280;24376;51.986;4.662;2022-10-23T00:30:46;108061.44;;;12.34;69.82
38620;BME280;24376;51.986;4.662;2022-10-23T00:33:11;108079.75;;;12.40;69.72
38620;BME280;24376;51.986;4.662;2022-10-23T00:35:40;108082.38;;;12.40;69.67
38620;BME280;24376;51.986;4.662;2022-10-23T00:38:06;108082.91;;;12.37;69.66
38620;BME280;24376;51.986;4.662;2022-10-23T00:43:21;108061.13;;;12.38;69.68
38620;BME280;24376;51.986;4.662;2022-10-23T00:45:47;108072.91;;;12.35;69.68
38620;BME280;24376;51.986;4.662;2022-10-23T00:48:12;108082.91;;;12.37;69.64
38620;BME280;24376;51.986;4.662;2022-10-23T00:50:38;108099.22;;;12.35;69.58
38620;BME280;24376;51.986;4.662;2022-10-23T00:53:04;108089.25;;;12.32;69.65
38620;BME280;24376;51.986;4.662;2022-10-23T00:55:29;108067.47;;;12.33;69.79
38620;BME280;24376;51.986;4.662;2022-10-23T00:57:56;108080.09;;;12.36;69.68
38620;BME280;24376;51.986;4.662;2022-10-23T01:00:26;108030.31;;;12.37;69.84
38620;BME280;24376;51.986;4.662;2022-10-23T01:02:51;108062.63;;;12.36;69.50
38620;BME280;24376;51.986;4.662;2022-10-23T01:05:17;108072.91;;;12.35;69.57
38620;BME280;24376;51.986;4.662;2022-10-23T01:07:49;108118.94;;;12.31;69.32
38620;BME280;24376;51.986;4.662;2022-10-23T01:10:29;108052.97;;;12.30;69.50
38620;BME280;24376;51.986;4.662;2022-10-23T01:13:00;108071.50;;;12.24;69.51
38620;BME280;24376;51.986;4.662;2022-10-23T01:15:32;108048.53;;;12.23;69.60
38620;BME280;24376;51.986;4.662;2022-10-23T01:18:12;108058.25;;;12.17;69.54
38620;BME280;24376;51.986;4.662;2022-10-23T01:20:52;108084.78;;;12.18;69.42
38620;BME280;24376;51.986;4.662;2022-10-23T01:28:35;108046.59;;;12.15;69.66
38620;BME280;24376;51.986;4.662;2022-10-23T01:31:02;108072.47;;;12.12;69.45
38620;BME280;24376;51.986;4.662;2022-10-23T01:33:32;108090.47;;;12.09;69.42
38620;BME280;24376;51.986;4.662;2022-10-23T01:36:02;108101.72;;;12.08;69.36
38620;BME280;24376;51.986;4.662;2022-10-23T01:38:37;108133.47;;;12.09;69.30
38620;BME280;24376;51.986;4.662;2022-10-23T01:41:12;108128.41;;;12.11;69.28
38620;BME280;24376;51.986;4.662;2022-10-23T01:43:43;108137.03;;;12.10;69.11
38620;BME280;24376;51.986;4.662;2022-10-23T01:46:11;108151.13;;;12.10;69.10
38620;BME280;24376;51.986;4.662;2022-10-23T01:48:38;108141.47;;;12.04;69.13
38620;BME280;24376;51.986;4.662;2022-10-23T01:51:06;108148.75;;;12.12;69.11
38620;BME280;24376;51.986;4.662;2022-10-23T01:53:32;108164.50;;;12.12;69.06
38620;BME280;24376;51.986;4.662;2022-10-23T01:55:59;108184.38;;;12.10;68.94
38620;BME280;24376;51.986;4.662;2022-10-23T01:58:26;108192.25;;;12.10;68.89
38620;BME280;24376;51.986;4.662;2022-10-23T02:00:53;108203.22;;;12.13;68.86
38620;BME280;24376;51.986;4.662;2022-10-23T02:03:21;108174.59;;;12.09;68.90
38620;BME280;24376;51.986;4.662;2022-10-23T02:05:47;108171.97;;;12.09;68.92
38620;BME280;24376;51.986;4.662;2022-10-23T02:08:12;108178.72;;;12.07;68.86
38620;BME280;24376;51.986;4.662;2022-10-23T02:10:47;108161.00;;;12.06;68.86
38620;BME280;24376;51.986;4.662;2022-10-23T02:15:49;108176.69;;;11.98;68.80
38620;BME280;24376;51.986;4.662;2022-10-23T02:20:58;108037.91;;;11.96;69.16
38620;BME280;24376;51.986;4.662;2022-10-23T02:25:53;108040.97;;;11.86;69.16
38620;BME280;24376;51.986;4.662;2022-10-23T02:28:23;108061.59;;;11.83;69.11
38620;BME280;24376;51.986;4.662;2022-10-23T02:30:49;108047.97;;;11.80;69.13
38620;BME280;24376;51.986;4.662;2022-10-23T02:33:14;108058.72;;;11.82;69.10
38620;BME280;24376;51.986;4.662;2022-10-23T02:35:41;108073.56;;;11.81;69.09
38620;BME280;24376;51.986;4.662;2022-10-23T02:40:49;108085.00;;;11.82;68.98
38620;BME280;24376;51.986;4.662;2022-10-23T02:43:18;108100.78;;;11.82;68.96
38620;BME280;24376;51.986;4.662;2022-10-23T02:45:58;108092.66;;;11.80;68.98
38620;BME280;24376;51.986;4.662;2022-10-23T02:48:48;108094.13;;;11.78;68.93
38620;BME280;24376;51.986;4.662;2022-10-23T02:51:17;108096.47;;;11.82;68.92
38620;BME280;24376;51.986;4.662;2022-10-23T02:56:44;108112.75;;;11.80;68.81
38620;BME280;24376;51.986;4.662;2022-10-23T02:59:17;108135.19;;;11.83;68.77
38620;BME280;24376;51.986;4.662;2022-10-23T03:01:47;108136.31;;;11.85;68.70
38620;BME280;24376;51.986;4.662;2022-10-23T03:04:14;108146.94;;;11.92;68.67
38620;BME280;24376;51.986;4.662;2022-10-23T03:06:40;108154.09;;;11.93;68.62
38620;BME280;24376;51.986;4.662;2022-10-23T03:09:07;108174.69;;;12.03;68.51
38620;BME280;24376;51.986;4.662;2022-10-23T03:11:32;108155.66;;;11.98;68.53
38620;BME280;24376;51.986;4.662;2022-10-23T03:13:58;108170.50;;;11.98;68.48
38620;BME280;24376;51.986;4.662;2022-10-23T03:16:23;108127.78;;;11.93;68.61
38620;BME280;24376;51.986;4.662;2022-10-23T03:18:48;108120.66;;;11.92;68.63
38620;BME280;24376;51.986;4.662;2022-10-23T03:21:13;108141.69;;;11.92;68.54
38620;BME280;24376;51.986;4.662;2022-10-23T03:23:38;108135.28;;;11.90;68.52
38620;BME280;24376;51.986;4.662;2022-10-23T03:26:04;108126.22;;;11.88;68.54
38620;BME280;24376;51.986;4.662;2022-10-23T03:28:29;108123.06;;;11.91;68.53
38620;BME280;24376;51.986;4.662;2022-10-23T03:30:54;108132.66;;;11.90;68.46
38620;BME280;24376;51.986;4.662;2022-10-23T03:33:20;108128.34;;;11.91;68.49
38620;BME280;24376;51.986;4.662;2022-10-23T03:35:46;108119.50;;;11.90;68.50
38620;BME280;24376;51.986;4.662;2022-10-23T03:38:11;108090.16;;;11.87;68.56
38620;BME280;24376;51.986;4.662;2022-10-23T03:40:37;108084.59;;;11.91;68.50
38620;BME280;24376;51.986;4.662;2022-10-23T03:43:02;108069.56;;;11.90;68.54
38620;BME280;24376;51.986;4.662;2022-10-23T03:45:27;108061.03;;;11.86;68.54
38620;BME280;24376;51.986;4.662;2022-10-23T03:47:52;108049.97;;;11.88;68.54
38620;BME280;24376;51.986;4.662;2022-10-23T03:50:17;108043.78;;;11.88;68.56
38620;BME280;24376;51.986;4.662;2022-10-23T03:52:43;108030.88;;;11.89;68.58
38620;BME280;24376;51.986;4.662;2022-10-23T03:55:08;108043.47;;;11.92;68.55
38620;BME280;24376;51.986;4.662;2022-10-23T03:57:33;108019.81;;;11.92;68.60
38620;BME280;24376;51.986;4.662;2022-10-23T03:59:58;108024.13;;;11.91;68.58
38620;BME280;24376;51.986;4.662;2022-10-23T04:02:23;108025.50;;;11.95;68.60
38620;BME280;24376;51.986;4.662;2022-10-23T04:04:49;108026.53;;;12.03;68.54
38620;BME280;24376;51.986;4.662;2022-10-23T04:07:14;108011.81;;;11.97;68.55
38620;BME280;24376;51.986;4.662;2022-10-23T04:09:39;107994.16;;;11.96;68.62
38620;BME280;24376;51.986;4.662;2022-10-23T04:12:04;107989.41;;;11.94;68.60
38620;BME280;24376;51.986;4.662;2022-10-23T04:14:30;107991.66;;;11.91;68.56
38620;BME280;24376;51.986;4.662;2022-10-23T04:16:55;107985.44;;;11.90;68.59
38620;BME280;24376;51.986;4.662;2022-10-23T04:19:20;107955.38;;;11.88;68.71
38620;BME280;24376;51.986;4.662;2022-10-23T04:21:45;107954.28;;;11.93;68.69
38620;BME280;24376;51.986;4.662;2022-10-23T04:24:10;107949.47;;;11.96;68.65
38620;BME280;24376;51.986;4.662;2022-10-23T04:26:36;107947.97;;;11.98;68.66
38620;BME280;24376;51.986;4.662;2022-10-23T04:29:01;107926.56;;;11.95;68.67
38620;BME280;24376;51.986;4.662;2022-10-23T04:31:26;107937.47;;;11.98;68.66
38620;BME280;24376;51.986;4.662;2022-10-23T04:33:51;107937.97;;;12.09;68.66
38620;BME280;24376;51.986;4.662;2022-10-23T04:36:17;107924.38;;;12.06;68.64
38620;BME280;24376;51.986;4.662;2022-10-23T04:38:42;107916.84;;;12.02;68.68
38620;BME280;24376;51.986;4.662;2022-10-23T04:41:07;107905.03;;;12.05;68.74
38620;BME280;24376;51.986;4.662;2022-10-23T04:43:32;107911.03;;;12.04;68.71
38620;BME280;24376;51.986;4.662;2022-10-23T04:45:57;107892.84;;;12.06;68.80
38620;BME280;24376;51.986;4.662;2022-10-23T04:48:23;107880.06;;;12.02;68.86
38620;BME280;24376;51.986;4.662;2022-10-23T04:50:55;107893.19;;;12.02;68.83
38620;BME280;24376;51.986;4.662;2022-10-23T04:53:20;107872.91;;;12.01;68.93
38620;BME280;24376;51.986;4.662;2022-10-23T04:55:49;107880.06;;;12.02;68.92
38620;BME280;24376;51.986;4.662;2022-10-23T04:58:15;107866.16;;;12.03;68.96
38620;BME280;24376;51.986;4.662;2022-10-23T05:00:40;107856.03;;;12.06;68.99
38620;BME280;24376;51.986;4.662;2022-10-23T05:03:05;107840.69;;;12.09;69.04
38620;BME280;24376;51.986;4.662;2022-10-23T05:05:30;107828.59;;;12.04;69.05
38620;BME280;24376;51.986;4.662;2022-10-23T05:07:55;107831.84;;;12.08;69.04
38620;BME280;24376;51.986;4.662;2022-10-23T05:10:20;107842.97;;;12.13;69.02
38620;BME280;24376;51.986;4.662;2022-10-23T05:12:46;107824.00;;;12.15;69.08
38620;BME280;24376;51.986;4.662;2022-10-23T05:15:11;107808.44;;;12.17;69.09
38620;BME280;24376;51.986;4.662;2022-10-23T05:17:36;107830.25;;;12.23;69.00
38620;BME280;24376;51.986;4.662;2022-10-23T05:20:04;107825.97;;;12.23;69.04
38620;BME280;24376;51.986;4.662;2022-10-23T05:22:32;107799.69;;;12.23;69.13
38620;BME280;24376;51.986;4.662;2022-10-23T05:24:59;107801.34;;;12.23;69.19
38620;BME280;24376;51.986;4.662;2022-10-23T05:27:26;107804.38;;;12.26;69.19
38620;BME280;24376;51.986;4.662;2022-10-23T05:29:51;107777.66;;;12.23;69.31
38620;BME280;24376;51.986;4.662;2022-10-23T05:32:16;107789.22;;;12.31;69.28
38620;BME280;24376;51.986;4.662;2022-10-23T05:34:42;107788.25;;;12.30;69.30
38620;BME280;24376;51.986;4.662;2022-10-23T05:37:08;107792.78;;;12.31;69.25
38620;BME280;24376;51.986;4.662;2022-10-23T05:39:34;107780.16;;;12.29;69.31
38620;BME280;24376;51.986;4.662;2022-10-23T05:41:59;107770.94;;;12.25;69.42
38620;BME280;24376;51.986;4.662;2022-10-23T05:44:25;107765.13;;;12.28;69.39
38620;BME280;24376;51.986;4.662;2022-10-23T05:46:50;107761.38;;;12.25;69.44
38620;BME280;24376;51.986;4.662;2022-10-23T05:49:15;107775.66;;;12.28;69.44
38620;BME280;24376;51.986;4.662;2022-10-23T05:51:40;107772.81;;;12.26;69.46
38620;BME280;24376;51.986;4.662;2022-10-23T05:54:06;107768.66;;;12.21;69.44
38620;BME280;24376;51.986;4.662;2022-10-23T05:56:33;107754.00;;;12.23;69.54
38620;BME280;24376;51.986;4.662;2022-10-23T05:58:58;107762.31;;;12.26;69.38
38620;BME280;24376;51.986;4.662;2022-10-23T06:01:23;107779.06;;;12.34;69.37
38620;BME280;24376;51.986;4.662;2022-10-23T06:03:48;107762.34;;;12.33;69.39
38620;BME280;24376;51.986;4.662;2022-10-23T06:06:15;107758.91;;;12.27;69.46
38620;BME280;24376;51.986;4.662;2022-10-23T06:08:40;107705.00;;;12.23;69.81
38620;BME280;24376;51.986;4.662;2022-10-23T06:11:09;107733.53;;;12.20;69.53
38620;BME280;24376;51.986;4.662;2022-10-23T06:13:35;107705.88;;;12.17;69.70
38620;BME280;24376;51.986;4.662;2022-10-23T06:16:10;107742.75;;;12.24;69.48
38620;BME280;24376;51.986;4.662;2022-10-23T06:18:35;107748.97;;;12.24;69.42
38620;BME280;24376;51.986;4.662;2022-10-23T06:21:01;107751.78;;;12.26;69.38
38620;BME280;24376;51.986;4.662;2022-10-23T06:23:26;107764.19;;;12.27;69.36
38620;BME280;24376;51.986;4.662;2022-10-23T06:25:51;107758.53;;;12.24;69.39
38620;BME280;24376;51.986;4.662;2022-10-23T06:28:18;107773.94;;;12.28;69.36
38620;BME280;24376;51.986;4.662;2022-10-23T06:30:43;107767.16;;;12.23;69.36
38620;BME280;24376;51.986;4.662;2022-10-23T06:33:08;107760.94;;;12.22;69.37
38620;BME280;24376;51.986;4.662;2022-10-23T06:35:34;107728.44;;;12.22;69.52
38620;BME280;24376;51.986;4.662;2022-10-23T06:37:59;107754.59;;;12.28;69.40
38620;BME280;24376;51.986;4.662;2022-10-23T06:40:24;107751.63;;;12.32;69.31
38620;BME280;24376;51.986;4.662;2022-10-23T06:42:49;107730.94;;;12.28;69.45
38620;BME280;24376;51.986;4.662;2022-10-23T06:45:14;107603.56;;;12.25;70.28
38620;BME280;24376;51.986;4.662;2022-10-23T06:47:40;107637.41;;;12.30;69.76
38620;BME280;24376;51.986;4.662;2022-10-23T06:50:05;107621.06;;;12.32;69.84
38620;BME280;24376;51.986;4.662;2022-10-23T06:52:30;107660.34;;;12.31;69.55
38620;BME280;24376;51.986;4.662;2022-10-23T06:54:55;107660.72;;;12.34;69.53
38620;BME280;24376;51.986;4.662;2022-10-23T06:57:21;107675.56;;;12.40;69.48
38620;BME280;24376;51.986;4.662;2022-10-23T06:59:46;107692.53;;;12.42;69.42
38620;BME280;24376;51.986;4.662;2022-10-23T07:02:11;107682.00;;;12.42;69.48
38620;BME280;24376;51.986;4.662;2022-10-23T07:04:36;107685.41;;;12.48;69.49
38620;BME280;24376;51.986;4.662;2022-10-23T07:07:01;107697.47;;;12.54;69.37
38620;BME280;24376;51.986;4.662;2022-10-23T07:09:26;107706.88;;;12.59;69.27
38620;BME280;24376;51.986;4.662;2022-10-23T07:11:52;107694.28;;;12.63;69.29
38620;BME280;24376;51.986;4.662;2022-10-23T07:14:17;107687.56;;;12.65;69.28
38620;BME280;24376;51.986;4.662;2022-10-23T07:16:42;107676.47;;;12.68;69.33
38620;BME280;24376;51.986;4.662;2022-10-23T07:19:07;107664.81;;;12.73;69.40
38620;BME280;24376;51.986;4.662;2022-10-23T07:21:33;107670.50;;;12.76;69.42
38620;BME280;24376;51.986;4.662;2022-10-23T07:23:59;107669.16;;;12.79;69.43
38620;BME280;24376;51.986;4.662;2022-10-23T07:26:24;107683.31;;;12.87;69.40
38620;BME280;24376;51.986;4.662;2022-10-23T07:28:49;107644.78;;;12.88;69.55
38620;BME280;24376;51.986;4.662;2022-10-23T07:31:19;107637.06;;;12.89;69.57
38620;BME280;24376;51.986;4.662;2022-10-23T07:33:44;107631.63;;;12.95;69.58
38620;BME280;24376;51.986;4.662;2022-10-23T07:36:09;107613.19;;;12.95;69.73
38620;BME280;24376;51.986;4.662;2022-10-23T07:38:34;107575.22;;;13.07;69.88
38620;BME280;24376;51.986;4.662;2022-10-23T07:40:59;107580.28;;;13.13;69.90
38620;BME280;24376;51.986;4.662;2022-10-23T07:43:25;107564.50;;;13.13;69.90
38620;BME280;24376;51.986;4.662;2022-10-23T07:45:51;107583.34;;;13.23;69.85
38620;BME280;24376;51.986;4.662;2022-10-23T07:48:16;107553.25;;;13.28;70.05
38620;BME280;24376;51.986;4.662;2022-10-23T07:50:42;107526.13;;;13.29;70.19
38620;BME280;24376;51.986;4.662;2022-10-23T07:53:10;107512.94;;;13.36;70.45
38620;BME280;24376;51.986;4.662;2022-10-23T07:55:38;107480.19;;;13.41;70.62
38620;BME280;24376;51.986;4.662;2022-10-23T07:58:03;107448.59;;;13.41;70.91
38620;BME280;24376;51.986;4.662;2022-10-23T08:00:29;107467.59;;;13.46;70.79
38620;BME280;24376;51.986;4.662;2022-10-23T08:02:54;107440.66;;;13.48;70.97
38620;BME280;24376;51.986;4.662;2022-10-23T08:05:19;107428.97;;;13.53;71.19
38620;BME280;24376;51.986;4.662;2022-10-23T08:07:44;107397.69;;;13.56;71.47
38620;BME280;24376;51.986;4.662;2022-10-23T08:10:09;107364.56;;;13.58;71.75
38620;BME280;24376;51.986;4.662;2022-10-23T08:12:36;107329.34;;;13.65;72.18
38620;BME280;24376;51.986;4.662;2022-10-23T08:15:01;107291.09;;;13.69;72.52
38620;BME280;24376;51.986;4.662;2022-10-23T08:17:26;107227.09;;;13.70;73.21
38620;BME280;24376;51.986;4.662;2022-10-23T08:19:51;107155.50;;;13.74;74.13
38620;BME280;24376;51.986;4.662;2022-10-23T08:22:16;107154.00;;;13.76;74.05
38620;BME280;24376;51.986;4.662;2022-10-23T08:24:41;107117.09;;;13.76;74.65
38620;BME280;24376;51.986;4.662;2022-10-23T08:27:07;107068.47;;;13.81;75.40
38620;BME280;24376;51.986;4.662;2022-10-23T08:29:32;107004.44;;;13.82;76.53
38620;BME280;24376;51.986;4.662;2022-10-23T08:31:57;106953.75;;;13.84;78.01
38620;BME280;24376;51.986;4.662;2022-10-23T08:34:22;106895.16;;;13.87;79.69
38620;BME280;24376;51.986;4.662;2022-10-23T08:36:48;106836.13;;;13.94;81.88
38620;BME280;24376;51.986;4.662;2022-10-23T08:39:13;106907.34;;;14.02;80.11
38620;BME280;24376;51.986;4.662;2022-10-23T08:41:42;106815.84;;;14.01;82.28
38620;BME280;24376;51.986;4.662;2022-10-23T08:44:20;106770.91;;;14.08;84.03
38620;BME280;24376;51.986;4.662;2022-10-23T08:46:49;106722.56;;;14.17;86.31
38620;BME280;24376;51.986;4.662;2022-10-23T08:49:23;106652.75;;;14.22;90.40
38620;BME280;24376;51.986;4.662;2022-10-23T08:51:51;106541.66;;;14.19;99.14
38620;BME280;24376;51.986;4.662;2022-10-23T08:54:20;106489.09;;;14.29;100.00
38620;BME280;24376;51.986;4.662;2022-10-23T08:56:51;106421.59;;;14.31;100.00
38620;BME280;24376;51.986;4.662;2022-10-23T09:01:48;106313.56;;;14.41;100.00
38620;BME280;24376;51.986;4.662;2022-10-23T09:04:16;106266.72;;;14.47;100.00
38620;BME280;24376;51.986;4.662;2022-10-23T09:06:48;106169.09;;;14.47;100.00
38620;BME280;24376;51.986;4.662;2022-10-23T09:11:56;106054.28;;;14.61;100.00
38620;BME280;24376;51.986;4.662;2022-10-23T09:14:32;105997.19;;;14.61;100.00
38620;BME280;24376;51.986;4.662;2022-10-23T09:19:41;105922.56;;;14.73;100.00
38620;BME280;24376;51.986;4.662;2022-10-23T09:22:08;105898.03;;;14.74;100.00
38620;BME280;24376;51.986;4.662;2022-10-23T09:24:34;105862.63;;;14.72;100.00
38620;BME280;24376;51.986;4.662;2022-10-23T09:27:00;105830.19;;;14.73;100.00
38620;BME280;24376;51.986;4.662;2022-10-23T09:29:27;105833.38;;;14.79;100.00
38620;BME280;24376;51.986;4.662;2022-10-23T09:31:56;105771.59;;;14.77;100.00
38620;BME280;24376;51.986;4.662;2022-10-23T09:34:23;105754.72;;;14.75;100.00
38620;BME280;24376;51.986;4.662;2022-10-23T09:36:49;105735.84;;;14.80;100.00
38620;BME280;24376;51.986;4.662;2022-10-23T09:39:26;105718.94;;;14.88;100.00
38620;BME280;24376;51.986;4.662;2022-10-23T09:41:52;105700.88;;;14.93;100.00
38620;BME280;24376;51.986;4.662;2022-10-23T09:44:22;105666.28;;;15.00;100.00
38620;BME280;24376;51.986;4.662;2022-10-23T09:47:08;105602.91;;;15.00;100.00
38620;BME280;24376;51.986;4.662;2022-10-23T09:49:33;105514.16;;;15.12;100.00
38620;BME280;24376;51.986;4.662;2022-10-23T09:52:00;105472.19;;;15.15;100.00
38620;BME280;24376;51.986;4.662;2022-10-23T09:54:26;105371.03;;;15.16;100.00
38620;BME280;24376;51.986;4.662;2022-10-23T09:56:53;105342.91;;;15.17;100.00
38620;BME280;24376;51.986;4.662;2022-10-23T09:59:26;105208.47;;;15.08;100.00
38620;BME280;24376;51.986;4.662;2022-10-23T10:01:57;105198.13;;;15.11;100.00
38620;BME280;24376;51.986;4.662;2022-10-23T10:04:40;105209.88;;;15.27;100.00
38620;BME280;24376;51.986;4.662;2022-10-23T10:07:16;105181.28;;;15.33;100.00
38620;BME280;24376;51.986;4.662;2022-10-23T10:09:42;105276.72;;;15.37;100.00
38620;BME280;24376;51.986;4.662;2022-10-23T10:14:52;105218.94;;;15.42;100.00
38620;BME280;24376;51.986;4.662;2022-10-23T10:17:32;105167.38;;;15.47;100.00
38620;BME280;24376;51.986;4.662;2022-10-23T10:20:05;105126.97;;;15.48;100.00
38620;BME280;24376;51.986;4.662;2022-10-23T10:32:39;104985.88;;;15.69;100.00
38620;BME280;24376;51.986;4.662;2022-10-23T10:35:18;104978.38;;;15.76;100.00
38620;BME280;24376;51.986;4.662;2022-10-23T10:40:31;104890.78;;;15.83;100.00
38620;BME280;24376;51.986;4.662;2022-10-23T10:45:30;104877.78;;;15.99;100.00
38620;BME280;24376;51.986;4.662;2022-10-23T10:48:09;104801.75;;;15.95;100.00
38620;BME280;24376;51.986;4.662;2022-10-23T10:55:41;104636.56;;;16.30;100.00
38620;BME280;24376;51.986;4.662;2022-10-23T10:58:15;104478.31;;;16.37;100.00
38620;BME280;24376;51.986;4.662;2022-10-23T11:00:42;104404.00;;;16.47;100.00
38620;BME280;24376;51.986;4.662;2022-10-23T11:03:11;104322.69;;;16.45;100.00
38620;BME280;24376;51.986;4.662;2022-10-23T11:05:46;104242.22;;;16.56;100.00
38620;BME280;24376;51.986;4.662;2022-10-23T11:10:39;104091.69;;;16.77;100.00
38620;BME280;24376;51.986;4.662;2022-10-23T11:13:04;103995.03;;;16.85;100.00
38620;BME280;24376;51.986;4.662;2022-10-23T11:15:34;103924.34;;;17.00;100.00
38620;BME280;24376;51.986;4.662;2022-10-23T11:18:01;103798.59;;;17.10;100.00
38620;BME280;24376;51.986;4.662;2022-10-23T11:20:51;103713.72;;;17.26;100.00
38620;BME280;24376;51.986;4.662;2022-10-23T11:23:28;103641.09;;;17.41;100.00
38620;BME280;24376;51.986;4.662;2022-10-23T11:28:38;103393.91;;;17.66;100.00
38620;BME280;24376;51.986;4.662;2022-10-23T11:31:18;103299.50;;;17.92;100.00
38620;BME280;24376;51.986;4.662;2022-10-23T11:41:46;102868.91;;;18.12;100.00
38620;BME280;24376;51.986;4.662;2022-10-23T11:52:31;102767.34;;;17.81;100.00
38620;BME280;24376;51.986;4.662;2022-10-23T11:55:03;102793.19;;;17.90;100.00
38620;BME280;24376;51.986;4.662;2022-10-23T11:57:39;102804.09;;;18.02;100.00
38620;BME280;24376;51.986;4.662;2022-10-23T12:00:17;102799.81;;;18.07;100.00
38620;BME280;24376;51.986;4.662;2022-10-23T12:02:48;102774.66;;;18.25;100.00
38620;BME280;24376;51.986;4.662;2022-10-23T12:05:27;102733.13;;;18.25;100.00
38620;BME280;24376;51.986;4.662;2022-10-23T12:07:55;102701.03;;;18.15;100.00
38620;BME280;24376;51.986;4.662;2022-10-23T12:10:23;102705.66;;;18.22;100.00
38620;BME280;24376;51.986;4.662;2022-10-23T12:12:58;102697.84;;;18.28;100.00
38620;BME280;24376;51.986;4.662;2022-10-23T12:15:23;102702.28;;;18.29;100.00
38620;BME280;24376;51.986;4.662;2022-10-23T12:17:50;102704.44;;;18.45;100.00
38620;BME280;24376;51.986;4.662;2022-10-23T12:20:20;102645.50;;;18.60;100.00
38620;BME280;24376;51.986;4.662;2022-10-23T12:25:16;102545.06;;;18.78;100.00
38620;BME280;24376;51.986;4.662;2022-10-23T12:30:19;102420.38;;;18.80;100.00
38620;BME280;24376;51.986;4.662;2022-10-23T12:40:30;102134.22;;;19.17;100.00
38620;BME280;24376;51.986;4.662;2022-10-23T12:42:57;102082.81;;;19.11;100.00
38620;BME280;24376;51.986;4.662;2022-10-23T12:45:40;102038.50;;;19.06;100.00
38620;BME280;24376;51.986;4.662;2022-10-23T12:48:16;102047.41;;;19.09;100.00
38620;BME280;24376;51.986;4.662;2022-10-23T12:50:42;102074.88;;;19.13;100.00
38620;BME280;24376;51.986;4.662;2022-10-23T12:53:14;102092.63;;;19.19;100.00
38620;BME280;24376;51.986;4.662;2022-10-23T12:55:45;102092.78;;;19.34;100.00
38620;BME280;24376;51.986;4.662;2022-10-23T12:58:21;102074.09;;;19.22;100.00
38620;BME280;24376;51.986;4.662;2022-10-23T13:00:54;102079.47;;;19.29;100.00
38620;BME280;24376;51.986;4.662;2022-10-23T13:03:20;102064.34;;;19.22;100.00
38620;BME280;24376;51.986;4.662;2022-10-23T13:05:47;102079.34;;;19.19;100.00
38620;BME280;24376;51.986;4.662;2022-10-23T13:08:13;102078.63;;;19.33;100.00
38620;BME280;24376;51.986;4.662;2022-10-23T13:10:38;102035.31;;;19.42;100.00
38620;BME280;24376;51.986;4.662;2022-10-23T13:13:04;102002.53;;;19.38;100.00
38620;BME280;24376;51.986;4.662;2022-10-23T13:15:37;101981.28;;;19.38;100.00
38620;BME280;24376;51.986;4.662;2022-10-23T13:18:03;101940.47;;;19.30;100.00
38620;BME280;24376;51.986;4.662;2022-10-23T13:20:30;101923.56;;;19.16;100.00
38620;BME280;24376;51.986;4.662;2022-10-23T13:23:00;101941.41;;;19.32;100.00
38620;BME280;24376;51.986;4.662;2022-10-23T13:25:27;101907.81;;;19.40;100.00
38620;BME280;24376;51.986;4.662;2022-10-23T13:30:37;101842.25;;;19.36;100.00
38620;BME280;24376;51.986;4.662;2022-10-23T13:33:20;101828.09;;;19.33;100.00
38620;BME280;24376;51.986;4.662;2022-10-23T13:35:58;101849.41;;;19.44;100.00
38620;BME280;24376;51.986;4.662;2022-10-23T13:38:27;101851.19;;;19.48;100.00
38620;BME280;24376;51.986;4.662;2022-10-23T13:40:57;101841.50;;;19.56;100.00
38620;BME280;24376;51.986;4.662;2022-10-23T13:43:23;101830.06;;;19.63;100.00
38620;BME280;24376;51.986;4.662;2022-10-23T13:45:49;101870.78;;;19.60;100.00
38620;BME280;24376;51.986;4.662;2022-10-23T13:48:14;101829.22;;;19.75;100.00
38620;BME280;24376;51.986;4.662;2022-10-23T13:50:40;101793.81;;;19.86;100.00
38620;BME280;24376;51.986;4.662;2022-10-23T13:53:07;101756.63;;;19.83;100.00
38620;BME280;24376;51.986;4.662;2022-10-23T13:55:32;101765.47;;;19.91;100.00
38620;BME280;24376;51.986;4.662;2022-10-23T13:57:58;101701.66;;;19.73;100.00
38620;BME280;24376;51.986;4.662;2022-10-23T14:00:23;101714.09;;;19.83;100.00
38620;BME280;24376;51.986;4.662;2022-10-23T14:02:48;101742.44;;;19.90;100.00
38620;BME280;24376;51.986;4.662;2022-10-23T14:05:13;101725.63;;;19.96;100.00
38620;BME280;24376;51.986;4.662;2022-10-23T14:07:38;101710.53;;;19.93;100.00
38620;BME280;24376;51.986;4.662;2022-10-23T14:10:04;101729.19;;;20.26;100.00
38620;BME280;24376;51.986;4.662;2022-10-23T14:12:29;101623.69;;;20.54;100.00
38620;BME280;24376;51.986;4.662;2022-10-23T14:14:54;101466.56;;;20.80;100.00
38620;BME280;24376;51.986;4.662;2022-10-23T14:17:19;101310.47;;;20.69;100.00
38620;BME280;24376;51.986;4.662;2022-10-23T14:19:45;101281.38;;;20.50;100.00